createdAt,value
2023-02-08T00:02:19.165Z,3.27
2023-02-08T00:04:49.193Z,3.30
2023-02-08T00:07:17.105Z,3.30
2023-02-08T00:09:44.993Z,3.07
2023-02-08T00:12:12.944Z,3.17
2023-02-08T00:14:40.830Z,3.40
2023-02-08T00:17:08.717Z,3.10
2023-02-08T00:19:36.657Z,3.50
2023-02-08T00:22:05.925Z,3.33
2023-02-08T00:24:33.985Z,3.20
2023-02-08T00:27:01.873Z,3.30
2023-02-08T00:29:29.848Z,3.40
2023-02-08T00:31:57.769Z,3.20
2023-02-08T00:34:25.710Z,3.30
2023-02-08T00:36:53.626Z,3.13
2023-02-08T00:39:24.432Z,3.10
2023-02-08T00:41:53.065Z,3.33
2023-02-08T00:44:21.054Z,3.40
2023-02-08T00:46:48.949Z,3.03
2023-02-08T00:49:18.695Z,3.30
2023-02-08T00:51:46.655Z,3.30
2023-02-08T00:54:15.240Z,3.20
2023-02-08T00:56:44.520Z,3.30
2023-02-08T00:59:12.646Z,3.30
2023-02-08T01:01:40.624Z,3.10
2023-02-08T01:04:08.627Z,3.77
2023-02-08T01:06:36.534Z,3.40
2023-02-08T01:09:04.636Z,3.50
2023-02-08T01:11:32.514Z,3.60
2023-02-08T01:14:02.510Z,3.40
2023-02-08T01:16:31.612Z,3.07
2023-02-08T01:19:01.910Z,3.50
2023-02-08T01:21:30.802Z,3.47
2023-02-08T01:23:58.679Z,3.07
2023-02-08T01:26:26.807Z,3.47
2023-02-08T01:28:55.362Z,3.30
2023-02-08T01:31:26.251Z,3.37
2023-02-08T01:33:54.182Z,2.90
2023-02-08T01:36:22.143Z,3.23
2023-02-08T01:38:50.069Z,3.30
2023-02-08T01:41:19.868Z,3.40
2023-02-08T01:44:02.695Z,3.30
2023-02-08T01:46:34.350Z,3.40
2023-02-08T01:49:05.473Z,3.30
2023-02-08T01:51:35.028Z,3.30
2023-02-08T01:54:03.495Z,3.47
2023-02-08T01:56:34.153Z,3.70
2023-02-08T01:59:03.916Z,3.60
2023-02-08T02:01:33.236Z,3.50
2023-02-08T02:04:02.454Z,3.57
2023-02-08T02:06:32.459Z,3.13
2023-02-08T02:09:05.863Z,2.60
2023-02-08T02:11:33.729Z,3.40
2023-02-08T02:14:01.697Z,3.57
2023-02-08T02:16:29.735Z,3.57
2023-02-08T02:18:59.476Z,3.50
2023-02-08T02:21:43.251Z,3.27
2023-02-08T02:24:47.456Z,3.20
2023-02-08T02:27:28.315Z,3.30
2023-02-08T02:30:26.104Z,3.17
2023-02-08T02:33:21.655Z,3.07
2023-02-08T02:35:52.985Z,3.30
2023-02-08T02:38:28.922Z,3.33
2023-02-08T02:41:01.579Z,3.53
2023-02-08T02:43:46.031Z,3.50
2023-02-08T02:46:23.554Z,3.27
2023-02-08T02:48:55.277Z,3.43
2023-02-08T02:51:26.147Z,3.33
2023-02-08T02:53:55.354Z,3.03
2023-02-08T02:56:24.520Z,3.40
2023-02-08T02:58:52.976Z,3.50
2023-02-08T03:01:25.928Z,3.13
2023-02-08T03:03:55.572Z,3.50
2023-02-08T03:06:27.847Z,3.60
2023-02-08T03:09:05.614Z,3.53
2023-02-08T03:11:34.451Z,3.30
2023-02-08T03:14:25.767Z,3.30
2023-02-08T03:17:01.955Z,3.60
2023-02-08T03:19:34.018Z,4.03
2023-02-08T03:22:03.402Z,3.30
2023-02-08T03:24:34.097Z,3.27
2023-02-08T03:27:04.628Z,3.60
2023-02-08T03:29:42.296Z,3.20
2023-02-08T03:32:11.280Z,3.50
2023-02-08T03:34:45.660Z,3.40
2023-02-08T03:37:15.519Z,3.30
2023-02-08T03:39:43.400Z,3.43
2023-02-08T03:42:13.256Z,3.27
2023-02-08T03:44:42.949Z,3.37
2023-02-08T03:47:13.103Z,2.90
2023-02-08T03:49:42.327Z,3.13
2023-02-08T03:52:10.877Z,3.20
2023-02-08T03:54:41.009Z,3.50
2023-02-08T03:57:11.449Z,3.20
2023-02-08T03:59:40.661Z,3.00
2023-02-08T04:02:10.784Z,3.13
2023-02-08T04:04:44.581Z,3.27
2023-02-08T04:07:12.442Z,3.07
2023-02-08T04:09:40.376Z,3.40
2023-02-08T04:12:08.982Z,3.20
2023-02-08T04:14:37.118Z,3.33
2023-02-08T04:17:05.132Z,3.20
2023-02-08T04:19:33.236Z,3.33
2023-02-08T04:22:02.522Z,3.10
2023-02-08T04:24:30.379Z,3.17
2023-02-08T04:26:58.250Z,3.10
2023-02-08T04:29:26.792Z,2.90
2023-02-08T04:31:54.755Z,3.00
2023-02-08T04:34:22.842Z,3.30
2023-02-08T04:36:50.707Z,3.23
2023-02-08T04:39:19.996Z,2.93
2023-02-08T04:41:47.857Z,3.33
2023-02-08T04:44:15.833Z,2.93
2023-02-08T04:46:43.737Z,3.20
2023-02-08T04:49:11.602Z,3.07
2023-02-08T04:51:39.620Z,3.10
2023-02-08T04:54:07.537Z,2.97
2023-02-08T04:56:37.011Z,2.70
2023-02-08T04:59:05.358Z,3.20
2023-02-08T05:01:33.335Z,2.80
2023-02-08T05:04:01.232Z,3.10
2023-02-08T05:06:29.092Z,2.83
2023-02-08T05:08:56.961Z,2.70
2023-02-08T05:11:25.466Z,2.93
2023-02-08T05:13:54.701Z,3.13
2023-02-08T05:16:22.613Z,3.17
2023-02-08T05:18:50.483Z,2.90
2023-02-08T05:21:18.339Z,2.90
2023-02-08T05:23:46.889Z,2.90
2023-02-08T05:26:15.136Z,2.83
2023-02-08T05:28:42.999Z,3.20
2023-02-08T05:31:13.291Z,3.20
2023-02-08T05:33:41.222Z,3.30
2023-02-08T05:36:09.718Z,3.03
2023-02-08T05:38:37.632Z,2.93
2023-02-08T05:41:05.654Z,2.87
2023-02-08T05:43:33.538Z,2.77
2023-02-08T05:46:01.392Z,3.13
2023-02-08T05:48:31.089Z,2.90
2023-02-08T05:50:59.388Z,3.10
2023-02-08T05:53:27.350Z,2.83
2023-02-08T05:55:55.302Z,3.77
2023-02-08T05:58:23.214Z,3.60
2023-02-08T06:00:51.273Z,3.20
2023-02-08T06:03:19.187Z,3.10
2023-02-08T06:05:48.540Z,3.50
2023-02-08T06:08:16.546Z,3.47
2023-02-08T06:10:45.820Z,2.93
2023-02-08T06:13:13.738Z,3.20
2023-02-08T06:15:41.593Z,3.50
2023-02-08T06:18:10.066Z,3.30
2023-02-08T06:20:38.157Z,2.90
2023-02-08T06:23:07.502Z,3.40
2023-02-08T06:25:35.442Z,3.10
2023-02-08T06:28:04.102Z,3.10
2023-02-08T06:30:32.269Z,3.07
2023-02-08T06:33:00.138Z,3.07
2023-02-08T06:35:28.057Z,3.23
2023-02-08T06:37:55.903Z,3.17
2023-02-08T06:40:25.184Z,3.10
2023-02-08T06:42:53.097Z,2.93
2023-02-08T06:45:21.015Z,3.20
2023-02-08T06:47:48.888Z,3.37
2023-02-08T06:50:16.860Z,3.10
2023-02-08T06:52:44.760Z,3.43
2023-02-08T06:55:12.655Z,3.20
2023-02-08T06:57:41.907Z,3.20
2023-02-08T07:00:11.085Z,3.23
2023-02-08T07:02:38.965Z,2.90
2023-02-08T07:05:07.547Z,3.30
2023-02-08T07:07:35.440Z,3.30
2023-02-08T07:10:03.564Z,3.30
2023-02-08T07:12:33.993Z,3.27
2023-02-08T07:15:03.283Z,2.90
2023-02-08T07:17:31.184Z,3.03
2023-02-08T07:19:59.109Z,3.00
2023-02-08T07:22:27.019Z,2.70
2023-02-08T07:24:54.994Z,3.10
2023-02-08T07:27:25.046Z,3.20
2023-02-08T07:29:53.853Z,3.43
2023-02-08T07:32:23.070Z,3.20
2023-02-08T07:34:51.058Z,3.27
2023-02-08T07:37:18.958Z,2.93
2023-02-08T07:39:46.847Z,3.10
2023-02-08T07:42:14.761Z,3.23
2023-02-08T07:44:54.220Z,3.20
2023-02-08T07:47:23.467Z,3.27
2023-02-08T07:49:51.340Z,3.13
2023-02-08T07:52:19.199Z,2.77
2023-02-08T07:54:47.088Z,2.90
2023-02-08T07:57:20.902Z,3.10
2023-02-08T07:59:48.926Z,2.87
2023-02-08T08:02:16.962Z,3.20
2023-02-08T08:04:46.268Z,3.00
2023-02-08T08:07:14.158Z,3.10
2023-02-08T08:09:42.107Z,3.20
2023-02-08T08:12:10.025Z,3.30
2023-02-08T08:14:37.920Z,3.27
2023-02-08T08:17:05.830Z,3.13
2023-02-08T08:19:33.667Z,3.03
2023-02-08T08:22:02.886Z,3.10
2023-02-08T08:24:31.705Z,3.17
2023-02-08T08:26:59.591Z,3.03
2023-02-08T08:29:27.499Z,3.00
2023-02-08T08:31:55.380Z,2.70
2023-02-08T08:34:29.820Z,3.23
2023-02-08T08:36:57.704Z,3.37
2023-02-08T08:39:27.278Z,2.90
2023-02-08T08:41:55.238Z,3.10
2023-02-08T08:44:23.149Z,3.30
2023-02-08T08:46:51.077Z,3.30
2023-02-08T08:49:18.990Z,2.80
2023-02-08T08:51:46.860Z,2.93
2023-02-08T08:54:14.706Z,2.87
2023-02-08T08:56:43.938Z,3.13
2023-02-08T08:59:11.864Z,2.50
2023-02-08T09:01:42.166Z,3.10
2023-02-08T09:04:10.179Z,2.93
2023-02-08T09:06:38.599Z,3.33
2023-02-08T09:09:06.487Z,2.80
2023-02-08T09:11:34.462Z,2.93
2023-02-08T09:14:04.879Z,2.90
2023-02-08T09:16:32.904Z,2.97
2023-02-08T09:19:02.082Z,3.00
2023-02-08T09:21:29.997Z,3.03
2023-02-08T09:23:57.906Z,3.10
2023-02-08T09:26:26.540Z,3.10
2023-02-08T09:28:54.426Z,3.00
2023-02-08T09:31:24.685Z,2.93
2023-02-08T09:33:53.247Z,3.50
2023-02-08T09:36:21.918Z,2.93
2023-02-08T09:38:49.849Z,3.47
2023-02-08T09:41:25.634Z,3.10
2023-02-08T09:43:55.928Z,3.13
2023-02-08T09:46:26.610Z,3.20
2023-02-08T09:48:54.919Z,3.10
2023-02-08T09:51:26.381Z,3.13
2023-02-08T09:53:57.021Z,3.23
2023-02-08T09:56:27.832Z,2.93
2023-02-08T09:58:55.718Z,3.10
2023-02-08T10:01:26.392Z,3.33
2023-02-08T10:03:56.233Z,3.30
2023-02-08T10:06:24.341Z,3.30
2023-02-08T10:08:52.500Z,3.37
2023-02-08T10:11:26.183Z,3.10
2023-02-08T10:14:07.028Z,2.90
2023-02-08T10:16:47.120Z,3.30
2023-02-08T10:19:20.977Z,3.00
2023-02-08T10:21:55.818Z,2.60
2023-02-08T10:24:32.865Z,3.20
2023-02-08T10:27:03.380Z,3.00
2023-02-08T10:30:07.946Z,3.00
2023-02-08T10:32:44.328Z,2.87
2023-02-08T10:35:13.199Z,3.43
2023-02-08T10:37:42.696Z,3.23
2023-02-08T10:40:20.938Z,3.20
2023-02-08T10:42:49.830Z,2.97
2023-02-08T10:45:24.497Z,3.03
2023-02-08T10:47:55.299Z,2.73
2023-02-08T10:50:25.449Z,2.90
2023-02-08T10:52:53.339Z,2.83
2023-02-08T10:55:21.773Z,2.90
2023-02-08T10:57:50.834Z,3.17
2023-02-08T11:00:20.503Z,3.10
2023-02-08T11:02:49.907Z,2.70
2023-02-08T11:05:20.153Z,3.00
2023-02-08T11:07:48.064Z,2.80
2023-02-08T11:10:23.848Z,2.93
2023-02-08T11:12:55.798Z,3.23
2023-02-08T11:15:24.848Z,2.90
2023-02-08T11:17:58.566Z,2.73
2023-02-08T11:20:31.510Z,3.17
2023-02-08T11:22:59.892Z,2.93
2023-02-08T11:25:36.227Z,2.83
2023-02-08T11:28:04.363Z,3.03
2023-02-08T11:30:33.295Z,3.10
2023-02-08T11:33:18.309Z,3.30
2023-02-08T11:35:58.321Z,3.07
2023-02-08T11:38:28.361Z,2.90
2023-02-08T11:40:57.755Z,2.90
2023-02-08T11:43:27.025Z,2.97
2023-02-08T11:45:55.390Z,3.37
2023-02-08T11:48:25.608Z,2.77
2023-02-08T11:50:59.788Z,2.67
2023-02-08T11:53:29.899Z,2.93
2023-02-08T11:56:06.474Z,2.87
2023-02-08T11:58:34.451Z,2.87
2023-02-08T12:01:03.631Z,2.90
2023-02-08T12:03:33.968Z,3.07
2023-02-08T12:06:17.497Z,2.67
2023-02-08T12:08:49.342Z,3.20
2023-02-08T12:11:18.707Z,2.50
2023-02-08T12:14:07.361Z,3.10
2023-02-08T12:17:03.567Z,3.07
2023-02-08T12:19:44.355Z,3.03
2023-02-08T12:22:14.752Z,2.90
2023-02-08T12:24:47.061Z,3.30
2023-02-08T12:27:27.160Z,2.93
2023-02-08T12:29:57.353Z,3.17
2023-02-08T12:32:39.041Z,3.20
2023-02-08T12:35:45.654Z,2.97
2023-02-08T12:38:35.638Z,3.30
2023-02-08T12:41:06.244Z,3.10
2023-02-08T12:43:41.473Z,3.03
2023-02-08T12:46:23.611Z,3.10
2023-02-08T12:49:09.105Z,3.07
2023-02-08T12:51:41.598Z,3.20
2023-02-08T12:54:11.923Z,3.13
2023-02-08T12:56:42.390Z,2.97
2023-02-08T12:59:14.138Z,3.20
2023-02-08T13:01:44.047Z,3.17
2023-02-08T13:04:13.163Z,3.17
2023-02-08T13:06:42.103Z,2.50
2023-02-08T13:09:15.989Z,3.20
2023-02-08T13:11:44.990Z,3.03
2023-02-08T13:14:14.679Z,3.03
2023-02-08T13:16:44.792Z,3.53
2023-02-08T13:19:24.583Z,2.80
2023-02-08T13:21:53.218Z,3.20
2023-02-08T13:24:28.566Z,3.07
2023-02-08T13:26:56.417Z,3.40
2023-02-08T13:29:33.151Z,2.70
2023-02-08T13:32:03.245Z,3.07
2023-02-08T13:34:33.768Z,3.10
2023-02-08T13:37:03.624Z,2.97
2023-02-08T13:39:38.040Z,3.20
2023-02-08T13:42:06.840Z,2.90
2023-02-08T13:44:36.334Z,2.87
2023-02-08T13:47:04.355Z,3.50
2023-02-08T13:49:54.710Z,3.23
2023-02-08T13:52:48.982Z,2.97
2023-02-08T13:56:08.259Z,2.90
2023-02-08T13:58:39.357Z,3.03
2023-02-08T14:01:21.376Z,2.57
2023-02-08T14:04:16.137Z,2.77
2023-02-08T14:06:47.386Z,2.97
2023-02-08T14:09:20.271Z,3.17
2023-02-08T14:11:49.669Z,2.97
2023-02-08T14:14:20.027Z,3.17
2023-02-08T14:16:48.008Z,3.23
2023-02-08T14:19:22.890Z,2.63
2023-02-08T14:21:51.489Z,2.73
2023-02-08T14:24:21.651Z,2.70
2023-02-08T14:26:49.586Z,3.00
2023-02-08T14:29:21.881Z,2.80
2023-02-08T14:31:49.799Z,2.87
2023-02-08T14:34:25.310Z,2.90
2023-02-08T14:37:04.335Z,3.20
2023-02-08T14:39:33.413Z,2.83
2023-02-08T14:42:03.829Z,2.50
2023-02-08T14:45:01.804Z,2.90
2023-02-08T14:48:19.225Z,2.67
2023-02-08T14:50:52.690Z,2.77
2023-02-08T14:53:41.286Z,2.83
2023-02-08T14:56:16.212Z,3.10
2023-02-08T14:58:46.159Z,2.60
2023-02-08T15:01:19.407Z,2.80
2023-02-08T15:03:48.024Z,2.60
2023-02-08T15:06:55.655Z,2.73
2023-02-08T15:09:25.081Z,2.70
2023-02-08T15:11:59.238Z,2.87
2023-02-08T15:14:27.138Z,3.30
2023-02-08T15:16:57.082Z,2.53
2023-02-08T15:19:27.105Z,2.40
2023-02-08T15:21:55.066Z,2.70
2023-02-08T15:24:23.738Z,2.97
2023-02-08T15:26:52.658Z,2.80
2023-02-08T15:29:26.154Z,2.90
2023-02-08T15:31:59.411Z,2.80
2023-02-08T15:34:27.260Z,2.90
2023-02-08T15:36:56.015Z,2.47
2023-02-08T15:39:28.794Z,2.83
2023-02-08T15:41:57.847Z,2.70
2023-02-08T15:44:27.863Z,2.70
2023-02-08T15:46:55.741Z,2.77
2023-02-08T15:49:33.896Z,2.70
2023-02-08T15:52:01.786Z,2.57
2023-02-08T15:54:29.904Z,2.50
2023-02-08T15:56:58.669Z,2.60
2023-02-08T15:59:27.849Z,2.60
2023-02-08T16:01:56.076Z,2.83
2023-02-08T16:04:25.503Z,2.70
2023-02-08T16:06:54.891Z,2.70
2023-02-08T16:09:25.157Z,2.70
2023-02-08T16:11:53.021Z,2.77
2023-02-08T16:14:25.298Z,2.67
2023-02-08T16:16:56.681Z,2.77
2023-02-08T16:19:27.731Z,2.47
2023-02-08T16:21:56.385Z,2.43
2023-02-08T16:24:25.941Z,2.40
2023-02-08T16:26:57.668Z,2.80
2023-02-08T16:29:27.140Z,2.67
2023-02-08T16:32:00.982Z,2.73
2023-02-08T16:34:30.828Z,2.80
2023-02-08T16:36:58.733Z,2.70
2023-02-08T16:39:54.622Z,2.80
2023-02-08T16:42:30.603Z,2.40
2023-02-08T16:45:07.377Z,2.47
2023-02-08T16:47:39.427Z,2.87
2023-02-08T16:50:09.461Z,3.37
2023-02-08T16:52:37.389Z,3.33
2023-02-08T16:55:05.757Z,3.50
2023-02-08T16:57:41.496Z,3.27
2023-02-08T17:00:19.116Z,3.10
2023-02-08T17:02:47.069Z,3.20
2023-02-08T17:05:16.407Z,3.03
2023-02-08T17:07:44.338Z,3.10
2023-02-08T17:10:17.956Z,3.43
2023-02-08T17:12:45.841Z,3.30
2023-02-08T17:15:13.820Z,3.17
2023-02-08T17:17:41.673Z,3.27
2023-02-08T17:20:19.255Z,3.03
2023-02-08T17:22:47.163Z,3.57
2023-02-08T17:25:18.768Z,3.40
2023-02-08T17:27:48.405Z,3.20
2023-02-08T17:30:19.667Z,3.03
2023-02-08T17:32:47.682Z,3.23
2023-02-08T17:35:17.286Z,3.33
2023-02-08T17:37:46.908Z,3.50
2023-02-08T17:40:14.895Z,3.40
2023-02-08T17:42:42.810Z,3.30
2023-02-08T17:45:11.310Z,3.30
2023-02-08T17:47:41.509Z,3.23
2023-02-08T17:50:10.255Z,3.37
2023-02-08T17:52:38.529Z,3.07
2023-02-08T17:55:08.873Z,3.47
2023-02-08T17:57:37.647Z,3.20
2023-02-08T18:00:06.073Z,3.23
2023-02-08T18:02:39.784Z,3.27
2023-02-08T18:05:07.858Z,3.37
2023-02-08T18:07:35.742Z,3.60
2023-02-08T18:10:04.089Z,3.43
2023-02-08T18:12:33.282Z,3.40
2023-02-08T18:15:01.170Z,3.70
2023-02-08T18:17:29.081Z,3.23
2023-02-08T18:19:56.983Z,3.60
2023-02-08T18:22:25.180Z,3.47
2023-02-08T18:24:54.140Z,3.40
2023-02-08T18:27:22.134Z,4.07
2023-02-08T18:29:51.397Z,3.50
2023-02-08T18:32:21.603Z,3.80
2023-02-08T18:34:49.692Z,3.43
2023-02-08T18:37:17.640Z,3.57
2023-02-08T18:39:45.649Z,3.47
2023-02-08T18:42:13.544Z,3.67
2023-02-08T18:44:41.472Z,4.03
2023-02-08T18:47:11.191Z,3.70
2023-02-08T18:49:40.759Z,3.60
2023-02-08T18:52:09.701Z,3.37
2023-02-08T18:54:38.224Z,3.30
2023-02-08T18:57:09.429Z,3.80
2023-02-08T18:59:37.528Z,3.57
2023-02-08T19:02:06.864Z,3.93
2023-02-08T19:04:39.145Z,3.90
2023-02-08T19:07:07.219Z,3.80
2023-02-08T19:09:36.075Z,3.73
2023-02-08T19:12:04.099Z,4.17
2023-02-08T19:14:32.054Z,3.77
2023-02-08T19:16:59.941Z,3.70
2023-02-08T19:19:27.925Z,3.63
2023-02-08T19:21:57.184Z,3.73
2023-02-08T19:24:25.084Z,4.03
2023-02-08T19:26:53.003Z,4.07
2023-02-08T19:29:22.187Z,3.20
2023-02-08T19:31:50.494Z,4.00
2023-02-08T19:34:18.576Z,4.00
2023-02-08T19:36:49.171Z,4.13
2023-02-08T19:39:19.844Z,3.83
2023-02-08T19:41:47.820Z,3.70
2023-02-08T19:44:17.180Z,3.90
2023-02-08T19:46:48.197Z,3.80
2023-02-08T19:49:16.142Z,3.90
2023-02-08T19:51:44.112Z,3.87
2023-02-08T19:54:13.221Z,3.63
2023-02-08T19:56:42.499Z,3.67
2023-02-08T19:59:18.245Z,3.80
2023-02-08T20:01:46.344Z,3.70
2023-02-08T20:04:14.559Z,3.80
2023-02-08T20:06:42.814Z,3.80
2023-02-08T20:09:10.730Z,3.77
2023-02-08T20:11:51.245Z,4.00
2023-02-08T20:14:25.320Z,4.00
2023-02-08T20:16:53.321Z,3.97
2023-02-08T20:19:21.366Z,3.90
2023-02-08T20:21:49.299Z,3.80
2023-02-08T20:24:17.220Z,4.30
2023-02-08T20:26:45.959Z,4.23
2023-02-08T20:29:14.361Z,3.93
2023-02-08T20:31:46.619Z,4.10
2023-02-08T20:34:15.658Z,4.70
2023-02-08T20:36:49.687Z,4.37
2023-02-08T20:39:20.720Z,4.17
2023-02-08T20:41:48.701Z,4.73
2023-02-08T20:44:17.764Z,4.60
2023-02-08T20:46:47.497Z,4.20
2023-02-08T20:49:21.406Z,4.47
2023-02-08T20:51:52.220Z,4.30
2023-02-08T20:54:20.142Z,4.33
2023-02-08T20:56:48.062Z,4.33
2023-02-08T20:59:15.939Z,4.37
2023-02-08T21:01:46.394Z,4.50
2023-02-08T21:04:16.983Z,4.23
2023-02-08T21:06:45.908Z,3.90
2023-02-08T21:09:14.574Z,4.00
2023-02-08T21:11:42.500Z,4.10
2023-02-08T21:14:13.586Z,4.40
2023-02-08T21:16:41.594Z,3.93
2023-02-08T21:19:10.717Z,4.10
2023-02-08T21:21:40.019Z,4.00
2023-02-08T21:24:08.222Z,4.17
2023-02-08T21:26:36.158Z,4.20
2023-02-08T21:29:05.948Z,4.27
2023-02-08T21:31:34.317Z,4.07
2023-02-08T21:34:02.421Z,4.60
2023-02-08T21:36:30.345Z,4.10
2023-02-08T21:38:59.673Z,4.13
2023-02-08T21:41:28.672Z,4.23
2023-02-08T21:43:57.492Z,4.07
2023-02-08T21:46:25.794Z,4.10
2023-02-08T21:49:11.058Z,4.20
2023-02-08T21:51:56.489Z,4.10
2023-02-08T21:54:42.286Z,4.00
2023-02-08T21:57:12.346Z,4.10
2023-02-08T21:59:40.314Z,4.23
2023-02-08T22:02:09.304Z,4.20
2023-02-08T22:04:51.440Z,4.20
2023-02-08T22:07:19.294Z,4.50
2023-02-08T22:09:48.724Z,4.23
2023-02-08T22:12:17.485Z,4.00
2023-02-08T22:14:45.411Z,4.30
2023-02-08T22:17:13.366Z,4.23
2023-02-08T22:19:41.660Z,4.53
2023-02-08T22:22:09.676Z,4.20
2023-02-08T22:24:37.621Z,4.50
2023-02-08T22:27:06.914Z,4.03
2023-02-08T22:29:34.904Z,4.07
2023-02-08T22:32:05.472Z,4.17
2023-02-08T22:34:33.481Z,4.23
2023-02-08T22:37:03.697Z,4.13
2023-02-08T22:39:32.912Z,4.33
2023-02-08T22:42:00.831Z,3.93
2023-02-08T22:44:30.079Z,4.20
2023-02-08T22:46:58.178Z,4.70
2023-02-08T22:49:26.157Z,4.30
2023-02-08T22:51:54.033Z,4.43
2023-02-08T22:54:22.031Z,4.53
2023-02-08T22:56:49.906Z,4.70
2023-02-08T22:59:17.800Z,4.37
2023-02-08T23:01:47.153Z,4.37
2023-02-08T23:04:15.144Z,4.47
2023-02-08T23:06:43.052Z,4.27
2023-02-08T23:09:12.591Z,4.73
2023-02-08T23:11:40.543Z,4.77
2023-02-08T23:14:08.423Z,4.60
2023-02-08T23:16:36.457Z,4.80
2023-02-08T23:19:05.838Z,4.30
2023-02-08T23:21:33.739Z,4.43
2023-02-08T23:24:01.667Z,4.70
2023-02-08T23:26:29.568Z,4.63
2023-02-08T23:28:57.445Z,4.50
2023-02-08T23:31:25.426Z,4.47
2023-02-08T23:33:53.395Z,4.60
2023-02-08T23:36:23.321Z,4.47
2023-02-08T23:38:51.311Z,4.77
2023-02-08T23:41:20.097Z,4.60
2023-02-08T23:43:48.146Z,4.77
2023-02-08T23:46:17.192Z,4.80
2023-02-08T23:48:45.682Z,4.43
2023-02-08T23:51:13.561Z,4.80
2023-02-08T23:53:44.762Z,4.93
2023-02-08T23:56:15.175Z,4.27
2023-02-08T23:58:43.376Z,4.80
